createdAt,value
2023-02-04T00:00:37.609Z,0.80
2023-02-04T00:03:06.790Z,0.90
2023-02-04T00:05:35.341Z,1.30
2023-02-04T00:08:06.489Z,1.20
2023-02-04T00:10:36.452Z,1.20
2023-02-04T00:13:05.353Z,1.52
2023-02-04T00:15:33.715Z,1.20
2023-02-04T00:18:02.081Z,1.25
2023-02-04T00:20:30.680Z,1.20
2023-02-04T00:22:59.284Z,1.20
2023-02-04T00:25:27.764Z,1.30
2023-02-04T00:27:57.475Z,1.45
2023-02-04T00:30:25.874Z,1.43
2023-02-04T00:32:55.115Z,1.40
2023-02-04T00:35:23.775Z,1.75
2023-02-04T00:37:52.657Z,1.33
2023-02-04T00:40:21.541Z,1.75
2023-02-04T00:42:49.878Z,1.30
2023-02-04T00:45:19.782Z,0.90
2023-02-04T00:47:48.162Z,1.50
2023-02-04T00:50:16.951Z,1.42
2023-02-04T00:52:45.364Z,1.30
2023-02-04T00:55:15.738Z,1.17
2023-02-04T00:57:44.164Z,1.65
2023-02-04T01:00:13.739Z,2.08
2023-02-04T01:02:43.501Z,1.98
2023-02-04T01:05:11.886Z,2.20
2023-02-04T01:07:40.262Z,1.80
2023-02-04T01:10:08.705Z,2.17
2023-02-04T01:12:37.314Z,1.77
2023-02-04T01:15:06.561Z,1.92
2023-02-04T01:17:35.022Z,2.35
2023-02-04T01:20:04.848Z,2.35
2023-02-04T01:22:33.167Z,1.73
2023-02-04T01:25:01.488Z,1.80
2023-02-04T01:27:29.880Z,0.85
2023-02-04T01:29:58.260Z,2.05
2023-02-04T01:32:26.620Z,1.60
2023-02-04T01:34:57.093Z,1.65
2023-02-04T01:39:55.025Z,1.60
2023-02-04T01:42:23.412Z,2.38
2023-02-04T01:44:52.260Z,1.50
2023-02-04T01:47:21.248Z,1.77
2023-02-04T01:49:52.631Z,2.10
2023-02-04T01:52:21.447Z,1.83
2023-02-04T01:54:51.345Z,2.80
2023-02-04T01:57:19.867Z,2.03
2023-02-04T01:59:48.920Z,1.90
2023-02-04T02:02:42.775Z,2.88
2023-02-04T02:05:12.435Z,1.52
2023-02-04T02:07:40.829Z,1.40
2023-02-04T02:10:12.434Z,1.75
2023-02-04T02:12:40.828Z,2.67
2023-02-04T02:15:10.860Z,3.08
2023-02-04T02:17:39.784Z,2.38
2023-02-04T02:20:10.442Z,2.78
2023-02-04T02:25:14.458Z,2.05
2023-02-04T02:27:43.179Z,1.83
2023-02-04T02:30:13.113Z,2.25
2023-02-04T02:32:41.805Z,2.10
2023-02-04T02:35:10.497Z,1.98
2023-02-04T02:37:38.871Z,2.17
2023-02-04T02:40:08.482Z,1.50
2023-02-04T02:42:38.469Z,2.38
2023-02-04T02:45:22.038Z,1.95
2023-02-04T02:47:50.900Z,2.40
2023-02-04T02:50:22.538Z,1.65
2023-02-04T02:52:50.881Z,2.13
2023-02-04T02:55:21.350Z,2.25
2023-02-04T02:57:51.885Z,2.22
2023-02-04T03:00:23.119Z,2.15
2023-02-04T03:02:56.434Z,2.42
2023-02-04T03:05:25.062Z,2.80
2023-02-04T03:07:53.629Z,2.00
2023-02-04T03:10:21.980Z,2.00
2023-02-04T03:12:51.854Z,2.00
2023-02-04T03:15:20.622Z,1.45
2023-02-04T03:17:49.298Z,1.30
2023-02-04T03:20:18.749Z,1.48
2023-02-04T03:22:47.067Z,2.08
2023-02-04T03:25:15.421Z,2.00
2023-02-04T03:27:43.811Z,2.55
2023-02-04T03:30:14.153Z,1.73
2023-02-04T03:32:42.750Z,1.35
2023-02-04T03:35:11.095Z,1.77
2023-02-04T03:37:39.454Z,1.50
2023-02-04T03:40:08.429Z,1.95
2023-02-04T03:42:36.765Z,1.55
2023-02-04T03:45:05.777Z,1.23
2023-02-04T03:47:35.516Z,1.10
2023-02-04T03:50:03.853Z,1.33
2023-02-04T03:52:32.236Z,1.33
2023-02-04T03:55:00.581Z,1.20
2023-02-04T03:57:28.937Z,1.40
2023-02-04T03:59:57.225Z,1.33
2023-02-04T04:02:25.641Z,1.80
2023-02-04T04:04:55.411Z,1.35
2023-02-04T04:07:23.810Z,1.83
2023-02-04T04:09:52.192Z,1.48
2023-02-04T04:12:20.629Z,1.40
2023-02-04T04:14:48.916Z,2.05
2023-02-04T04:17:17.698Z,1.45
2023-02-04T04:19:46.103Z,2.00
2023-02-04T04:22:15.826Z,1.73
2023-02-04T04:24:44.142Z,1.80
2023-02-04T04:27:12.492Z,1.83
2023-02-04T04:29:40.798Z,1.88
2023-02-04T04:32:09.796Z,1.77
2023-02-04T04:34:38.286Z,1.98
2023-02-04T04:37:06.788Z,1.40
2023-02-04T04:39:36.499Z,1.30
2023-02-04T04:42:05.102Z,2.73
2023-02-04T04:44:33.410Z,2.13
2023-02-04T04:47:01.856Z,2.08
2023-02-04T04:49:30.389Z,1.20
2023-02-04T04:51:58.808Z,1.42
2023-02-04T04:54:27.265Z,1.95
2023-02-04T04:56:57.090Z,2.10
2023-02-04T04:59:25.430Z,3.47
2023-02-04T05:01:53.826Z,1.40
2023-02-04T05:04:22.236Z,1.90
2023-02-04T05:06:50.645Z,2.25
2023-02-04T05:09:18.987Z,1.60
2023-02-04T05:11:47.924Z,2.17
2023-02-04T05:14:17.742Z,1.60
2023-02-04T05:16:46.061Z,1.63
2023-02-04T05:19:14.474Z,1.40
2023-02-04T05:21:42.802Z,1.75
2023-02-04T05:24:11.133Z,1.40
2023-02-04T05:26:39.429Z,1.30
2023-02-04T05:29:09.368Z,1.90
2023-02-04T05:31:40.213Z,1.58
2023-02-04T05:34:08.642Z,1.45
2023-02-04T05:36:37.028Z,2.25
2023-02-04T05:39:05.438Z,1.42
2023-02-04T05:41:33.850Z,1.70
2023-02-04T05:44:02.242Z,1.42
2023-02-04T05:46:30.676Z,2.13
2023-02-04T05:49:00.380Z,1.23
2023-02-04T05:51:28.843Z,2.10
2023-02-04T05:53:57.233Z,2.08
2023-02-04T05:56:26.400Z,1.40
2023-02-04T05:58:54.824Z,1.73
2023-02-04T06:01:23.237Z,1.40
2023-02-04T06:03:51.708Z,2.03
2023-02-04T06:06:21.498Z,1.88
2023-02-04T06:08:49.891Z,1.73
2023-02-04T06:11:18.225Z,1.45
2023-02-04T06:13:46.623Z,2.30
2023-02-04T06:16:15.096Z,1.80
2023-02-04T06:18:43.595Z,1.42
2023-02-04T06:21:11.915Z,2.10
2023-02-04T06:23:41.617Z,1.98
2023-02-04T06:26:10.102Z,2.07
2023-02-04T06:28:38.554Z,1.58
2023-02-04T06:31:09.173Z,2.03
2023-02-04T06:33:37.863Z,1.48
2023-02-04T06:36:06.433Z,1.55
2023-02-04T06:38:34.829Z,1.80
2023-02-04T06:41:04.527Z,1.05
2023-02-04T06:43:32.942Z,1.87
2023-02-04T06:46:01.387Z,1.60
2023-02-04T06:48:31.174Z,1.85
2023-02-04T06:50:59.731Z,1.67
2023-02-04T06:53:28.090Z,1.48
2023-02-04T06:55:56.453Z,1.60
2023-02-04T06:58:26.237Z,1.60
2023-02-04T07:00:54.632Z,1.55
2023-02-04T07:03:23.010Z,1.77
2023-02-04T07:05:53.127Z,1.88
2023-02-04T07:08:21.936Z,2.28
2023-02-04T07:10:50.326Z,2.15
2023-02-04T07:13:18.672Z,1.98
2023-02-04T07:15:48.491Z,1.77
2023-02-04T07:18:16.894Z,3.00
2023-02-04T07:20:45.228Z,1.77
2023-02-04T07:23:13.645Z,2.10
2023-02-04T07:25:42.110Z,1.05
2023-02-04T07:28:10.552Z,1.70
2023-02-04T07:30:39.078Z,1.40
2023-02-04T07:33:08.841Z,1.40
2023-02-04T07:35:38.039Z,1.60
2023-02-04T07:38:06.458Z,1.50
2023-02-04T07:40:35.224Z,1.00
2023-02-04T07:43:03.669Z,1.77
2023-02-04T07:45:32.076Z,1.67
2023-02-04T07:48:00.453Z,2.28
2023-02-04T07:50:30.566Z,1.80
2023-02-04T07:52:59.387Z,1.52
2023-02-04T07:55:27.829Z,1.30
2023-02-04T07:57:56.261Z,1.40
2023-02-04T08:00:25.137Z,1.45
2023-02-04T08:02:53.783Z,1.77
2023-02-04T08:05:22.164Z,1.15
2023-02-04T08:07:51.898Z,1.80
2023-02-04T08:10:21.513Z,1.70
2023-02-04T08:12:49.967Z,1.33
2023-02-04T08:15:18.368Z,1.55
2023-02-04T08:17:46.676Z,1.60
2023-02-04T08:20:15.038Z,1.05
2023-02-04T08:22:43.385Z,1.33
2023-02-04T08:25:13.681Z,1.00
2023-02-04T08:27:42.783Z,0.82
2023-02-04T08:30:12.258Z,0.95
2023-02-04T08:32:40.611Z,1.17
2023-02-04T08:35:09.694Z,1.35
2023-02-04T08:37:38.105Z,0.88
2023-02-04T08:40:07.280Z,0.98
2023-02-04T08:42:37.030Z,1.27
2023-02-04T08:45:05.816Z,1.30
2023-02-04T08:47:34.131Z,1.23
2023-02-04T08:50:02.475Z,1.92
2023-02-04T08:52:30.848Z,1.80
2023-02-04T08:54:59.112Z,1.00
2023-02-04T08:57:27.435Z,1.85
2023-02-04T08:59:57.170Z,1.90
2023-02-04T09:02:25.583Z,1.80
2023-02-04T09:04:54.040Z,1.48
2023-02-04T09:07:22.531Z,1.48
2023-02-04T09:09:50.838Z,1.05
2023-02-04T09:12:19.164Z,1.60
2023-02-04T09:14:47.513Z,2.22
2023-02-04T09:17:17.252Z,2.33
2023-02-04T09:19:45.586Z,0.87
2023-02-04T09:22:13.929Z,0.60
2023-02-04T09:24:42.379Z,0.32
2023-02-04T09:27:10.751Z,0.60
2023-02-04T09:29:39.235Z,0.68
2023-02-04T09:32:07.656Z,0.90
2023-02-04T09:34:37.393Z,0.50
2023-02-04T09:37:05.793Z,0.80
2023-02-04T09:39:34.170Z,0.90
2023-02-04T09:42:02.549Z,1.73
2023-02-04T09:44:31.105Z,1.10
2023-02-04T09:47:01.247Z,1.35
2023-02-04T09:49:29.914Z,1.20
2023-02-04T09:51:59.686Z,1.20
2023-02-04T09:54:28.073Z,0.93
2023-02-04T09:56:57.519Z,1.00
2023-02-04T09:59:28.678Z,0.70
2023-02-04T10:01:59.411Z,1.35
2023-02-04T10:04:28.043Z,1.70
2023-02-04T10:06:58.655Z,0.82
2023-02-04T10:11:56.611Z,1.45
2023-02-04T10:14:25.181Z,1.00
2023-02-04T10:16:58.507Z,1.10
2023-02-04T10:19:28.475Z,1.15
2023-02-04T10:21:57.105Z,1.40
2023-02-04T10:24:28.329Z,1.20
2023-02-04T10:27:08.178Z,1.73
2023-02-04T10:29:36.492Z,0.70
2023-02-04T10:32:05.138Z,0.65
2023-02-04T10:34:37.874Z,0.77
2023-02-04T10:37:15.687Z,0.80
2023-02-04T10:39:45.553Z,0.77
2023-02-04T10:42:22.038Z,0.98
2023-02-04T10:44:50.502Z,0.82
2023-02-04T10:47:20.969Z,1.10
2023-02-04T10:49:56.645Z,0.90
2023-02-04T10:52:27.961Z,0.90
2023-02-04T10:54:58.323Z,1.00
2023-02-04T10:57:28.610Z,1.50
2023-02-04T10:59:59.471Z,1.10
2023-02-04T11:02:43.434Z,1.00
2023-02-04T11:05:15.718Z,1.17
2023-02-04T11:07:44.198Z,0.65
2023-02-04T11:10:16.913Z,0.73
2023-02-04T11:12:47.671Z,1.10
2023-02-04T11:15:38.937Z,1.48
2023-02-04T11:18:08.999Z,1.23
2023-02-04T11:20:39.919Z,1.20
2023-02-04T11:23:29.881Z,1.20
2023-02-04T11:26:07.649Z,1.40
2023-02-04T11:28:57.522Z,1.05
2023-02-04T11:31:43.974Z,0.93
2023-02-04T11:34:26.689Z,1.20
2023-02-04T11:37:12.259Z,1.30
2023-02-04T11:39:42.410Z,1.38
2023-02-04T11:42:34.206Z,1.20
2023-02-04T11:45:04.351Z,1.15
2023-02-04T11:47:36.915Z,1.20
2023-02-04T11:50:13.334Z,1.13
2023-02-04T11:52:42.380Z,1.10
2023-02-04T11:55:12.123Z,1.50
2023-02-04T11:57:42.609Z,1.37
2023-02-04T12:00:15.606Z,1.73
2023-02-04T12:02:46.418Z,2.10
2023-02-04T12:05:16.152Z,1.20
2023-02-04T12:07:45.125Z,1.20
2023-02-04T12:10:15.768Z,1.05
2023-02-04T12:15:19.054Z,0.60
2023-02-04T12:17:47.864Z,0.90
2023-02-04T12:20:16.422Z,0.95
2023-02-04T12:22:44.852Z,1.17
2023-02-04T12:25:16.833Z,1.38
2023-02-04T12:27:46.703Z,1.10
2023-02-04T12:30:15.459Z,1.30
2023-02-04T12:32:43.819Z,1.13
2023-02-04T12:35:12.229Z,0.73
2023-02-04T12:37:40.550Z,0.60
2023-02-04T12:40:09.962Z,0.73
2023-02-04T12:42:38.297Z,0.90
2023-02-04T12:45:08.877Z,0.70
2023-02-04T12:50:05.699Z,1.08
2023-02-04T12:52:34.244Z,0.63
2023-02-04T12:55:04.789Z,0.60
2023-02-04T12:57:33.267Z,0.52
2023-02-04T13:00:01.812Z,0.30
2023-02-04T13:02:31.559Z,0.30
2023-02-04T13:04:59.990Z,0.97
2023-02-04T13:07:28.330Z,0.80
2023-02-04T13:09:57.437Z,0.80
2023-02-04T13:12:25.914Z,1.00
2023-02-04T13:14:54.283Z,0.80
2023-02-04T13:17:22.761Z,0.70
2023-02-04T13:19:52.494Z,0.60
2023-02-04T13:22:21.226Z,0.73
2023-02-04T13:24:49.643Z,0.60
2023-02-04T13:27:18.045Z,0.40
2023-02-04T13:29:46.369Z,0.50
2023-02-04T13:32:14.732Z,0.35
2023-02-04T13:34:43.299Z,0.70
2023-02-04T13:37:13.000Z,0.65
2023-02-04T13:39:41.337Z,0.30
2023-02-04T13:42:09.708Z,0.45
2023-02-04T13:44:38.052Z,0.40
2023-02-04T13:47:06.510Z,0.50
2023-02-04T13:49:34.849Z,0.50
2023-02-04T13:52:03.212Z,0.50
2023-02-04T13:54:32.994Z,0.60
2023-02-04T13:57:01.383Z,0.40
2023-02-04T13:59:29.734Z,0.40
2023-02-04T14:01:58.052Z,0.77
2023-02-04T14:04:27.174Z,0.80
2023-02-04T14:06:56.418Z,0.70
2023-02-04T14:09:25.478Z,0.52
2023-02-04T14:11:55.177Z,0.60
2023-02-04T14:14:23.512Z,0.73
2023-02-04T14:16:52.049Z,0.35
2023-02-04T14:19:20.395Z,0.50
2023-02-04T14:21:50.257Z,0.40
2023-02-04T14:24:18.618Z,0.93
2023-02-04T14:26:46.964Z,0.65
2023-02-04T14:29:16.743Z,0.60
2023-02-04T14:31:45.104Z,0.60
2023-02-04T14:34:13.550Z,0.93
2023-02-04T14:36:41.989Z,0.60
2023-02-04T14:39:10.315Z,0.60
2023-02-04T14:41:38.677Z,0.60
2023-02-04T14:44:07.061Z,0.50
2023-02-04T14:46:36.892Z,0.50
2023-02-04T14:49:05.227Z,0.50
2023-02-04T14:51:33.562Z,0.50
2023-02-04T14:54:02.777Z,0.45
2023-02-04T14:56:31.137Z,0.60
2023-02-04T14:58:59.455Z,0.75
2023-02-04T15:01:27.996Z,0.55
2023-02-04T15:03:58.317Z,0.52
2023-02-04T15:06:26.910Z,0.50
2023-02-04T15:08:55.539Z,0.50
2023-02-04T15:11:23.937Z,0.65
2023-02-04T15:13:52.242Z,0.55
2023-02-04T15:16:20.607Z,0.30
2023-02-04T15:18:49.117Z,0.30
2023-02-04T15:21:18.885Z,0.50
2023-02-04T15:23:47.683Z,0.50
2023-02-04T15:26:16.438Z,0.45
2023-02-04T15:28:44.782Z,0.60
2023-02-04T15:31:13.353Z,0.40
2023-02-04T15:33:41.778Z,1.08
2023-02-04T15:36:10.346Z,0.50
2023-02-04T15:38:40.048Z,0.45
2023-02-04T15:41:08.419Z,0.63
2023-02-04T15:43:36.764Z,1.40
2023-02-04T15:46:05.381Z,1.20
2023-02-04T15:48:33.729Z,0.90
2023-02-04T15:51:02.037Z,0.80
2023-02-04T15:53:30.507Z,0.45
2023-02-04T15:56:00.211Z,1.00
2023-02-04T15:58:28.570Z,0.70
2023-02-04T16:00:57.466Z,0.70
2023-02-04T16:03:26.691Z,0.73
2023-02-04T16:05:55.609Z,0.50
2023-02-04T16:08:23.998Z,0.50
2023-02-04T16:10:54.079Z,2.03
2023-02-04T16:13:23.895Z,1.75
2023-02-04T16:15:52.224Z,1.63
2023-02-04T16:18:20.710Z,1.50
2023-02-04T16:20:49.094Z,1.00
2023-02-04T16:23:17.460Z,0.75
2023-02-04T16:25:45.823Z,0.82
2023-02-04T16:28:14.220Z,1.35
2023-02-04T16:30:44.044Z,0.80
2023-02-04T16:33:12.436Z,0.80
2023-02-04T16:35:59.846Z,0.80
2023-02-04T16:38:28.621Z,0.80
2023-02-04T16:40:57.003Z,1.20
2023-02-04T16:43:25.654Z,1.00
2023-02-04T16:45:55.809Z,0.98
2023-02-04T16:48:24.223Z,0.85
2023-02-04T16:50:52.587Z,1.00
2023-02-04T16:53:20.952Z,1.50
2023-02-04T16:55:49.382Z,1.00
2023-02-04T16:58:18.779Z,0.80
2023-02-04T17:00:47.169Z,0.93
2023-02-04T17:03:17.230Z,1.00
2023-02-04T17:05:45.669Z,0.98
2023-02-04T17:08:15.162Z,1.10
2023-02-04T17:11:00.444Z,1.10
2023-02-04T17:13:28.929Z,1.05
2023-02-04T17:16:01.055Z,1.20
2023-02-04T17:18:32.153Z,1.23
2023-02-04T17:21:01.145Z,1.10
2023-02-04T17:23:29.786Z,1.23
2023-02-04T17:25:58.177Z,1.38
2023-02-04T17:28:26.634Z,1.02
2023-02-04T17:30:55.018Z,0.60
2023-02-04T17:33:23.435Z,1.00
2023-02-04T17:35:53.184Z,0.80
2023-02-04T17:38:22.004Z,1.20
2023-02-04T17:40:50.622Z,1.10
2023-02-04T17:43:19.171Z,1.40
2023-02-04T17:45:47.550Z,1.40
2023-02-04T17:48:16.204Z,1.10
2023-02-04T17:50:44.639Z,1.33
2023-02-04T17:53:14.373Z,0.98
2023-02-04T17:55:42.749Z,0.87
2023-02-04T17:58:15.862Z,1.00
2023-02-04T18:00:45.940Z,0.90
2023-02-04T18:03:15.637Z,0.73
2023-02-04T18:05:46.801Z,1.20
2023-02-04T18:08:18.175Z,1.00
2023-02-04T18:10:47.689Z,1.17
2023-02-04T18:13:17.714Z,1.02
2023-02-04T18:15:47.890Z,1.00
2023-02-04T18:18:20.842Z,1.00
2023-02-04T18:20:55.093Z,1.00
2023-02-04T18:23:24.922Z,1.00
2023-02-04T18:25:53.236Z,0.98
2023-02-04T18:28:22.875Z,0.93
2023-02-04T18:30:53.109Z,1.07
2023-02-04T18:33:23.994Z,1.10
2023-02-04T18:35:53.734Z,1.00
2023-02-04T18:38:25.923Z,1.00
2023-02-04T18:41:00.767Z,1.15
2023-02-04T18:43:30.661Z,1.17
2023-02-04T18:46:02.415Z,1.35
2023-02-04T18:48:54.748Z,1.35
2023-02-04T18:51:27.393Z,0.95
2023-02-04T18:54:00.647Z,1.27
2023-02-04T18:56:35.142Z,1.30
2023-02-04T18:59:03.798Z,1.42
2023-02-04T19:01:35.575Z,1.35
2023-02-04T19:04:07.067Z,1.20
2023-02-04T19:06:39.909Z,1.23
2023-02-04T19:09:17.663Z,1.50
2023-02-04T19:11:48.247Z,1.60
2023-02-04T19:16:48.054Z,1.38
2023-02-04T19:19:44.829Z,1.50
2023-02-04T19:22:19.682Z,1.45
2023-02-04T19:24:52.113Z,1.20
2023-02-04T19:27:32.925Z,1.50
2023-02-04T19:30:02.367Z,1.40
2023-02-04T19:32:33.993Z,2.00
2023-02-04T19:35:16.305Z,1.73
2023-02-04T19:37:45.923Z,2.00
2023-02-04T19:40:26.866Z,1.75
2023-02-04T19:42:56.212Z,1.90
2023-02-04T19:45:26.434Z,2.00
2023-02-04T19:47:56.162Z,2.35
2023-02-04T19:50:27.289Z,1.67
2023-02-04T19:53:01.676Z,2.05
2023-02-04T19:55:36.884Z,2.00
2023-02-04T19:58:16.694Z,1.90
2023-02-04T20:01:01.657Z,2.20
2023-02-04T20:03:35.841Z,1.80
2023-02-04T20:06:27.593Z,2.15
2023-02-04T20:08:56.826Z,2.20
2023-02-04T20:12:00.016Z,1.60
2023-02-04T20:14:49.326Z,2.08
2023-02-04T20:17:37.415Z,1.83
2023-02-04T20:20:20.811Z,2.25
2023-02-04T20:22:51.278Z,2.17
2023-02-04T20:25:45.089Z,2.13
2023-02-04T20:28:37.307Z,2.40
2023-02-04T20:31:18.791Z,2.13
2023-02-04T20:33:49.814Z,2.10
2023-02-04T20:36:36.169Z,2.83
2023-02-04T20:39:30.881Z,2.70
2023-02-04T20:42:36.715Z,2.65
2023-02-04T20:45:33.979Z,2.90
2023-02-04T20:48:27.062Z,2.92
2023-02-04T20:50:56.629Z,2.72
2023-02-04T20:53:26.879Z,3.20
2023-02-04T20:56:03.704Z,2.90
2023-02-04T20:58:35.868Z,3.05
2023-02-04T21:01:18.711Z,3.08
2023-02-04T21:03:47.047Z,3.17
2023-02-04T21:06:23.015Z,2.95
2023-02-04T21:08:52.866Z,2.95
2023-02-04T21:11:22.898Z,3.25
2023-02-04T21:13:52.313Z,2.97
2023-02-04T21:16:22.276Z,3.50
2023-02-04T21:18:50.824Z,3.58
2023-02-04T21:21:20.369Z,3.70
2023-02-04T21:23:48.757Z,3.75
2023-02-04T21:26:17.060Z,3.33
2023-02-04T21:28:45.597Z,3.25
2023-02-04T21:31:14.058Z,3.08
2023-02-04T21:33:43.965Z,2.80
2023-02-04T21:36:12.286Z,3.63
2023-02-04T21:38:40.783Z,3.60
2023-02-04T21:41:09.202Z,3.70
2023-02-04T21:43:37.525Z,3.67
2023-02-04T21:46:06.234Z,3.70
2023-02-04T21:48:34.575Z,3.47
2023-02-04T21:51:04.467Z,3.30
2023-02-04T21:53:32.867Z,2.95
2023-02-04T21:56:01.239Z,2.97
2023-02-04T21:58:29.656Z,2.75
2023-02-04T22:00:58.075Z,2.65
2023-02-04T22:03:26.600Z,3.00
2023-02-04T22:05:54.963Z,2.58
2023-02-04T22:08:24.713Z,3.10
2023-02-04T22:10:53.067Z,2.67
2023-02-04T22:13:21.368Z,2.92
2023-02-04T22:15:49.726Z,3.38
2023-02-04T22:18:18.091Z,3.65
2023-02-04T22:20:46.439Z,3.90
2023-02-04T22:23:16.608Z,4.18
2023-02-04T22:25:46.332Z,3.65
2023-02-04T22:28:14.753Z,3.27
2023-02-04T22:30:43.148Z,4.28
2023-02-04T22:33:14.078Z,4.80
2023-02-04T22:35:42.469Z,4.57
2023-02-04T22:38:10.807Z,4.13
2023-02-04T22:40:39.185Z,3.90
2023-02-04T22:43:08.868Z,3.80
2023-02-04T22:45:37.202Z,4.53
2023-02-04T22:48:05.593Z,4.32
2023-02-04T22:50:34.104Z,4.35
2023-02-04T22:53:02.402Z,4.53
2023-02-04T22:55:30.771Z,4.28
2023-02-04T22:57:59.154Z,4.60
2023-02-04T23:00:28.908Z,4.22
2023-02-04T23:02:57.252Z,4.25
2023-02-04T23:05:25.659Z,4.18
2023-02-04T23:07:53.952Z,4.20
2023-02-04T23:10:22.352Z,3.90
2023-02-04T23:12:50.662Z,3.50
2023-02-04T23:15:19.330Z,3.50
2023-02-04T23:17:49.064Z,4.38
2023-02-04T23:20:17.902Z,3.93
2023-02-04T23:22:46.209Z,4.15
2023-02-04T23:25:14.540Z,4.15
2023-02-04T23:27:42.964Z,4.43
2023-02-04T23:30:12.409Z,4.00
2023-02-04T23:32:40.720Z,4.10
2023-02-04T23:35:10.528Z,3.80
2023-02-04T23:37:38.853Z,4.07
2023-02-04T23:40:08.008Z,4.00
2023-02-04T23:42:36.377Z,4.45
2023-02-04T23:45:05.146Z,4.15
2023-02-04T23:47:33.600Z,4.20
2023-02-04T23:50:01.924Z,4.78
2023-02-04T23:52:31.633Z,4.43
2023-02-04T23:55:01.321Z,4.13
2023-02-04T23:57:30.554Z,4.13
2023-02-04T23:59:58.861Z,4.60
